Minerva Astra — 9HDW7 — position and weather

sailwx.info

Track history (hours):
 
Tides and Currents Weather Stations Pressure Air Temp Water Temp Dewpoint Dewpoint Depression Visibility Wind Speed Wind Dir Waves Ship Positions

Minerva Astra

Last reported at 2016-Aug-23 06:29 UTC. Time now 2016-Aug-24 17:55 UTC.
Position N 25°52' W 079°32'.

Length 248 m; draft 12.9 m.

Type: Tanker. MMSI: 256703000.

Date/timePositionNaut miles runAvg speedWind from/ knotsBaromVisibWave heightAir tempDewpointWater temp
2016-Aug-23 06:29N 25°52' W 079°32'1111.9
2016-Aug-23 05:33N 26°03' W 079°30'1612.2
2016-Aug-23 04:17N 26°14' W 079°18'1313.3
2016-Aug-23 03:18N 26°17' W 079°04'  
2016-Aug-15 04:07N 36°26' W 029°31'913.6
2016-Aug-15 03:30N 36°27' W 029°21'1613.5
2016-Aug-15 02:20N 36°27' W 029°01'1313.6
2016-Aug-15 01:21N 36°27' W 028°45'1213.7
2016-Aug-15 00:27N 36°27' W 028°29'1413.8
2016-Aug-14 23:24N 36°27' W 028°11'1214.1
2016-Aug-14 22:31N 36°27' W 027°56'1313.9
2016-Aug-14 21:33N 36°27' W 027°39'1414.1
2016-Aug-14 20:33N 36°27' W 027°22'1414.1
2016-Aug-14 19:32N 36°27' W 027°04'1713.8
2016-Aug-14 18:20N 36°27' W 026°43'1113.8
2016-Aug-14 17:32N 36°27' W 026°30'1414.1
2016-Aug-14 16:34N 36°27' W 026°13'1414.1
2016-Aug-14 15:34N 36°26' W 025°55'1414.1
2016-Aug-14 14:33N 36°26' W 025°37'1414.0
2016-Aug-14 13:33N 36°25' W 025°20'1414.2
2016-Aug-14 12:33N 36°25' W 025°03'1414.2
2016-Aug-14 11:34N 36°25' W 024°45'1414.2
2016-Aug-14 10:33N 36°24' W 024°27'1414.2
2016-Aug-14 09:33N 36°24' W 024°10'1414.2
2016-Aug-14 08:33N 36°23' W 023°52'1414.4
2016-Aug-14 07:33N 36°23' W 023°34'1414.1
2016-Aug-14 06:34N 36°22' W 023°17'2914.2
2016-Aug-14 04:33N 36°22' W 022°41'1413.9
2016-Aug-14 03:34N 36°21' W 022°24'1513.8
2016-Aug-14 02:30N 36°21' W 022°06'1313.8
2016-Aug-14 01:33N 36°20' W 021°50'1413.8
2016-Aug-14 00:33N 36°20' W 021°33'1413.9
2016-Aug-13 23:33N 36°20' W 021°15'1514.0
2016-Aug-13 22:30N 36°19' W 020°57'1314.1
2016-Aug-13 21:33N 36°19' W 020°41'1514.3
2016-Aug-13 20:32N 36°18' W 020°22'3214.4
2016-Aug-13 18:19N 36°17' W 019°43'5814.4
2016-Aug-13 14:19N 36°16' W 018°31'1114.1
2016-Aug-13 13:31N 36°15' W 018°18'5814.1
2016-Aug-13 09:26N 36°13' W 017°06'3014.2
2016-Aug-13 07:18N 36°12' W 016°29'  
Track history (hours):
 
Tides and Currents Weather Stations Pressure Air Temp Water Temp Dewpoint Dewpoint Depression Visibility Wind Speed Wind Dir Waves Ship Positions

Minerva Astra

Last reported at 2016-Aug-23 06:29 UTC. Time now 2016-Aug-24 17:55 UTC.
Position N 25°52' W 079°32'.

Length 248 m; draft 12.9 m.

Type: Tanker. MMSI: 256703000.

Date/timePositionNaut miles runAvg speedWind from/ knotsBaromVisibWave heightAir tempDewpointWater temp
2016-Aug-23 06:29N 25°52' W 079°32'1111.9
2016-Aug-23 05:33N 26°03' W 079°30'1612.2
2016-Aug-23 04:17N 26°14' W 079°18'1313.3
2016-Aug-23 03:18N 26°17' W 079°04'  
2016-Aug-15 04:07N 36°26' W 029°31'913.6
2016-Aug-15 03:30N 36°27' W 029°21'1613.5
2016-Aug-15 02:20N 36°27' W 029°01'1313.6
2016-Aug-15 01:21N 36°27' W 028°45'1213.7
2016-Aug-15 00:27N 36°27' W 028°29'1413.8
2016-Aug-14 23:24N 36°27' W 028°11'1214.1
2016-Aug-14 22:31N 36°27' W 027°56'1313.9
2016-Aug-14 21:33N 36°27' W 027°39'1414.1
2016-Aug-14 20:33N 36°27' W 027°22'1414.1
2016-Aug-14 19:32N 36°27' W 027°04'1713.8
2016-Aug-14 18:20N 36°27' W 026°43'1113.8
2016-Aug-14 17:32N 36°27' W 026°30'1414.1
2016-Aug-14 16:34N 36°27' W 026°13'1414.1
2016-Aug-14 15:34N 36°26' W 025°55'1414.1
2016-Aug-14 14:33N 36°26' W 025°37'1414.0
2016-Aug-14 13:33N 36°25' W 025°20'1414.2
2016-Aug-14 12:33N 36°25' W 025°03'1414.2
2016-Aug-14 11:34N 36°25' W 024°45'1414.2
2016-Aug-14 10:33N 36°24' W 024°27'1414.2
2016-Aug-14 09:33N 36°24' W 024°10'1414.2
2016-Aug-14 08:33N 36°23' W 023°52'1414.4
2016-Aug-14 07:33N 36°23' W 023°34'1414.1
2016-Aug-14 06:34N 36°22' W 023°17'2914.2
2016-Aug-14 04:33N 36°22' W 022°41'1413.9
2016-Aug-14 03:34N 36°21' W 022°24'1513.8
2016-Aug-14 02:30N 36°21' W 022°06'1313.8
2016-Aug-14 01:33N 36°20' W 021°50'1413.8
2016-Aug-14 00:33N 36°20' W 021°33'1413.9
2016-Aug-13 23:33N 36°20' W 021°15'1514.0
2016-Aug-13 22:30N 36°19' W 020°57'1314.1
2016-Aug-13 21:33N 36°19' W 020°41'1514.3
2016-Aug-13 20:32N 36°18' W 020°22'3214.4
2016-Aug-13 18:19N 36°17' W 019°43'5814.4
2016-Aug-13 14:19N 36°16' W 018°31'1114.1
2016-Aug-13 13:31N 36°15' W 018°18'5814.1
2016-Aug-13 09:26N 36°13' W 017°06'3014.2
2016-Aug-13 07:18N 36°12' W 016°29'  

Dump ship's entire track history